sensor_id;sensor_type;location;lat;lon;timestamp;pressure;altitude;pressure_sealevel;temperature;humidity
30873;BME280;17579;42.690;2.586;2023-04-25T00:00:13;96977.22;;;17.23;50.35
30873;BME280;17579;42.690;2.586;2023-04-25T00:02:46;96969.63;;;17.26;50.88
30873;BME280;17579;42.690;2.586;2023-04-25T00:05:14;96966.34;;;17.31;50.72
30873;BME280;17579;42.690;2.586;2023-04-25T00:07:49;96959.19;;;17.31;50.40
30873;BME280;17579;42.690;2.586;2023-04-25T00:10:15;96963.13;;;17.36;50.57
30873;BME280;17579;42.690;2.586;2023-04-25T00:12:41;96968.06;;;17.39;50.59
30873;BME280;17579;42.690;2.586;2023-04-25T00:15:14;96966.41;;;17.38;50.52
30873;BME280;17579;42.690;2.586;2023-04-25T00:17:43;96959.84;;;17.40;50.23
30873;BME280;17579;42.690;2.586;2023-04-25T00:20:31;96956.13;;;17.35;50.18
30873;BME280;17579;42.690;2.586;2023-04-25T00:22:59;96942.34;;;17.38;50.22
30873;BME280;17579;42.690;2.586;2023-04-25T00:25:28;96943.16;;;17.31;50.25
30873;BME280;17579;42.690;2.586;2023-04-25T00:27:54;96944.97;;;17.31;50.77
30873;BME280;17579;42.690;2.586;2023-04-25T00:30:28;96936.34;;;17.29;50.36
30873;BME280;17579;42.690;2.586;2023-04-25T00:32:57;96943.75;;;17.27;50.51
30873;BME280;17579;42.690;2.586;2023-04-25T00:35:22;96947.22;;;17.27;50.42
30873;BME280;17579;42.690;2.586;2023-04-25T00:37:48;96948.25;;;17.26;50.67
30873;BME280;17579;42.690;2.586;2023-04-25T00:40:14;96943.75;;;17.27;50.53
30873;BME280;17579;42.690;2.586;2023-04-25T00:42:44;96941.88;;;17.27;50.76
30873;BME280;17579;42.690;2.586;2023-04-25T00:45:31;96939.00;;;17.29;50.59
30873;BME280;17579;42.690;2.586;2023-04-25T00:47:57;96924.97;;;17.20;50.89
30873;BME280;17579;42.690;2.586;2023-04-25T00:50:23;96935.81;;;17.12;50.83
30873;BME280;17579;42.690;2.586;2023-04-25T00:52:50;96935.59;;;17.13;51.23
30873;BME280;17579;42.690;2.586;2023-04-25T00:55:16;96935.22;;;17.17;50.91
30873;BME280;17579;42.690;2.586;2023-04-25T00:57:48;96935.59;;;17.13;50.77
30873;BME280;17579;42.690;2.586;2023-04-25T01:00:17;96924.09;;;17.13;50.87
30873;BME280;17579;42.690;2.586;2023-04-25T01:02:46;96932.50;;;17.10;51.13
30873;BME280;17579;42.690;2.586;2023-04-25T01:05:12;96934.97;;;17.11;51.01
30873;BME280;17579;42.690;2.586;2023-04-25T01:07:39;96927.59;;;17.13;51.36
30873;BME280;17579;42.690;2.586;2023-04-25T01:10:10;96923.50;;;17.18;50.96
30873;BME280;17579;42.690;2.586;2023-04-25T01:12:41;96931.59;;;17.24;51.47
30873;BME280;17579;42.690;2.586;2023-04-25T01:15:15;96938.81;;;17.30;51.06
30873;BME280;17579;42.690;2.586;2023-04-25T01:17:41;96933.91;;;17.34;51.17
30873;BME280;17579;42.690;2.586;2023-04-25T01:20:11;96925.69;;;17.36;51.40
30873;BME280;17579;42.690;2.586;2023-04-25T01:22:37;96917.91;;;17.41;51.17
30873;BME280;17579;42.690;2.586;2023-04-25T01:25:03;96919.56;;;17.42;50.94
30873;BME280;17579;42.690;2.586;2023-04-25T01:27:36;96911.72;;;17.40;50.88
30873;BME280;17579;42.690;2.586;2023-04-25T01:30:04;96917.09;;;17.40;50.97
30873;BME280;17579;42.690;2.586;2023-04-25T01:32:33;96920.78;;;17.39;51.24
30873;BME280;17579;42.690;2.586;2023-04-25T01:35:11;96921.56;;;17.33;51.09
30873;BME280;17579;42.690;2.586;2023-04-25T01:37:40;96927.13;;;17.38;51.02
30873;BME280;17579;42.690;2.586;2023-04-25T01:40:12;96932.47;;;17.38;51.22
30873;BME280;17579;42.690;2.586;2023-04-25T01:43:00;96920.97;;;17.38;51.34
30873;BME280;17579;42.690;2.586;2023-04-25T01:45:28;96923.03;;;17.36;51.14
30873;BME280;17579;42.690;2.586;2023-04-25T01:47:54;96921.75;;;17.31;51.45
30873;BME280;17579;42.690;2.586;2023-04-25T01:50:26;96915.34;;;17.26;51.17
30873;BME280;17579;42.690;2.586;2023-04-25T01:52:58;96918.44;;;17.29;51.67
30873;BME280;17579;42.690;2.586;2023-04-25T01:55:26;96922.78;;;17.30;51.36
30873;BME280;17579;42.690;2.586;2023-04-25T01:57:54;96906.13;;;17.35;51.42
30873;BME280;17579;42.690;2.586;2023-04-25T02:00:28;96911.94;;;17.39;51.22
30873;BME280;17579;42.690;2.586;2023-04-25T02:02:58;96904.72;;;17.39;51.08
30873;BME280;17579;42.690;2.586;2023-04-25T02:05:35;96903.75;;;17.47;51.16
30873;BME280;17579;42.690;2.586;2023-04-25T02:08:03;96901.09;;;17.47;50.92
30873;BME280;17579;42.690;2.586;2023-04-25T02:10:35;96896.31;;;17.42;50.93
30873;BME280;17579;42.690;2.586;2023-04-25T02:13:12;96885.56;;;17.29;51.31
30873;BME280;17579;42.690;2.586;2023-04-25T02:15:58;96892.16;;;17.33;51.58
30873;BME280;17579;42.690;2.586;2023-04-25T02:18:33;96893.41;;;17.37;51.84
30873;BME280;17579;42.690;2.586;2023-04-25T02:21:04;96898.38;;;17.40;51.53
30873;BME280;17579;42.690;2.586;2023-04-25T02:23:33;96887.88;;;17.45;51.14
30873;BME280;17579;42.690;2.586;2023-04-25T02:26:04;96888.28;;;17.42;50.86
30873;BME280;17579;42.690;2.586;2023-04-25T02:28:51;96886.00;;;17.33;51.08
30873;BME280;17579;42.690;2.586;2023-04-25T02:31:35;96891.50;;;17.24;51.83
30873;BME280;17579;42.690;2.586;2023-04-25T02:34:01;96890.69;;;17.30;52.19
30873;BME280;17579;42.690;2.586;2023-04-25T02:36:29;96896.03;;;17.30;52.15
30873;BME280;17579;42.690;2.586;2023-04-25T02:39:03;96905.13;;;17.36;52.34
30873;BME280;17579;42.690;2.586;2023-04-25T02:41:29;96897.72;;;17.38;52.24
30873;BME280;17579;42.690;2.586;2023-04-25T02:44:01;96905.75;;;17.38;51.77
30873;BME280;17579;42.690;2.586;2023-04-25T02:46:32;96908.66;;;17.43;52.19
30873;BME280;17579;42.690;2.586;2023-04-25T02:51:39;96901.69;;;17.49;52.39
30873;BME280;17579;42.690;2.586;2023-04-25T02:56:54;96896.16;;;17.51;52.58
30873;BME280;17579;42.690;2.586;2023-04-25T02:59:23;96904.38;;;17.49;52.49
30873;BME280;17579;42.690;2.586;2023-04-25T03:01:57;96884.00;;;17.48;53.03
30873;BME280;17579;42.690;2.586;2023-04-25T03:04:23;96902.50;;;17.43;53.34
30873;BME280;17579;42.690;2.586;2023-04-25T03:07:02;96908.25;;;17.40;53.21
30873;BME280;17579;42.690;2.586;2023-04-25T03:09:31;96901.25;;;17.39;53.25
30873;BME280;17579;42.690;2.586;2023-04-25T03:12:00;96901.66;;;17.42;53.26
30873;BME280;17579;42.690;2.586;2023-04-25T03:14:28;96907.84;;;17.43;53.66
30873;BME280;17579;42.690;2.586;2023-04-25T03:16:57;96906.38;;;17.40;53.04
30873;BME280;17579;42.690;2.586;2023-04-25T03:19:26;96908.03;;;17.41;53.55
30873;BME280;17579;42.690;2.586;2023-04-25T03:21:51;96911.94;;;17.45;53.80
30873;BME280;17579;42.690;2.586;2023-04-25T03:24:19;96904.56;;;17.47;53.78
30873;BME280;17579;42.690;2.586;2023-04-25T03:26:55;96902.72;;;17.48;53.83
30873;BME280;17579;42.690;2.586;2023-04-25T03:29:26;96906.03;;;17.50;53.30
30873;BME280;17579;42.690;2.586;2023-04-25T03:32:30;96906.84;;;17.51;53.45
30873;BME280;17579;42.690;2.586;2023-04-25T03:34:41;96904.38;;;17.49;53.45
30873;BME280;17579;42.690;2.586;2023-04-25T03:37:27;96898.56;;;17.39;52.91
30873;BME280;17579;42.690;2.586;2023-04-25T03:39:53;96900.84;;;17.42;53.60
30873;BME280;17579;42.690;2.586;2023-04-25T03:42:19;96913.75;;;17.38;53.80
30873;BME280;17579;42.690;2.586;2023-04-25T03:44:48;96914.81;;;17.37;53.90
30873;BME280;17579;42.690;2.586;2023-04-25T03:47:25;96905.94;;;17.37;54.31
30873;BME280;17579;42.690;2.586;2023-04-25T03:50:01;96897.09;;;17.36;54.57
30873;BME280;17579;42.690;2.586;2023-04-25T03:52:29;96897.09;;;17.36;54.36
30873;BME280;17579;42.690;2.586;2023-04-25T03:55:07;96893.56;;;17.29;54.10
30873;BME280;17579;42.690;2.586;2023-04-25T03:57:44;96892.97;;;17.34;54.97
30873;BME280;17579;42.690;2.586;2023-04-25T04:00:24;96895.84;;;17.32;54.52
30873;BME280;17579;42.690;2.586;2023-04-25T04:02:50;96894.38;;;17.29;54.61
30873;BME280;17579;42.690;2.586;2023-04-25T04:05:23;96889.25;;;17.28;54.75
30873;BME280;17579;42.690;2.586;2023-04-25T04:07:48;96889.84;;;17.23;54.94
30873;BME280;17579;42.690;2.586;2023-04-25T04:10:20;96889.84;;;17.23;54.70
30873;BME280;17579;42.690;2.586;2023-04-25T04:12:46;96893.31;;;17.24;54.42
30873;BME280;17579;42.690;2.586;2023-04-25T04:15:11;96893.31;;;17.24;53.86
30873;BME280;17579;42.690;2.586;2023-04-25T04:17:39;96898.47;;;17.25;54.30
30873;BME280;17579;42.690;2.586;2023-04-25T04:20:09;96904.84;;;17.24;54.25
30873;BME280;17579;42.690;2.586;2023-04-25T04:22:45;96890.03;;;17.22;54.29
30873;BME280;17579;42.690;2.586;2023-04-25T04:25:11;96892.91;;;17.20;54.35
30873;BME280;17579;42.690;2.586;2023-04-25T04:27:38;96891.25;;;17.19;54.12
30873;BME280;17579;42.690;2.586;2023-04-25T04:30:05;96885.28;;;17.17;54.41
30873;BME280;17579;42.690;2.586;2023-04-25T04:32:41;96880.13;;;17.16;54.33
30873;BME280;17579;42.690;2.586;2023-04-25T04:35:20;96869.78;;;17.06;54.15
30873;BME280;17579;42.690;2.586;2023-04-25T04:37:49;96884.22;;;17.11;54.19
30873;BME280;17579;42.690;2.586;2023-04-25T04:43:21;96884.81;;;17.07;54.10
30873;BME280;17579;42.690;2.586;2023-04-25T04:45:50;96887.63;;;16.99;54.16
30873;BME280;17579;42.690;2.586;2023-04-25T04:48:18;96878.59;;;17.00;54.46
30873;BME280;17579;42.690;2.586;2023-04-25T04:50:47;96870.19;;;17.03;54.48
30873;BME280;17579;42.690;2.586;2023-04-25T04:53:17;96879.00;;;17.03;54.07
30873;BME280;17579;42.690;2.586;2023-04-25T04:55:49;96867.31;;;17.04;54.23
30873;BME280;17579;42.690;2.586;2023-04-25T04:58:18;96874.50;;;17.04;53.70
30873;BME280;17579;42.690;2.586;2023-04-25T05:00:44;96881.09;;;17.08;54.00
30873;BME280;17579;42.690;2.586;2023-04-25T05:03:18;96874.34;;;17.12;53.71
30873;BME280;17579;42.690;2.586;2023-04-25T05:05:43;96877.84;;;17.12;54.17
30873;BME280;17579;42.690;2.586;2023-04-25T05:08:12;96872.69;;;17.11;54.08
30873;BME280;17579;42.690;2.586;2023-04-25T05:10:38;96871.06;;;17.10;53.78
30873;BME280;17579;42.690;2.586;2023-04-25T05:13:07;96884.59;;;17.08;54.02
30873;BME280;17579;42.690;2.586;2023-04-25T05:15:33;96880.28;;;17.07;54.33
30873;BME280;17579;42.690;2.586;2023-04-25T05:18:16;96883.34;;;17.04;54.19
30873;BME280;17579;42.690;2.586;2023-04-25T05:20:44;96890.56;;;17.10;53.65
30873;BME280;17579;42.690;2.586;2023-04-25T05:23:33;96887.69;;;17.12;53.72
30873;BME280;17579;42.690;2.586;2023-04-25T05:25:59;96872.50;;;17.12;53.89
30873;BME280;17579;42.690;2.586;2023-04-25T05:28:28;96877.22;;;17.10;53.87
30873;BME280;17579;42.690;2.586;2023-04-25T05:30:54;96879.69;;;17.12;54.23
30873;BME280;17579;42.690;2.586;2023-04-25T05:36:21;96880.13;;;17.16;53.64
30873;BME280;17579;42.690;2.586;2023-04-25T05:38:47;96874.78;;;17.16;53.95
30873;BME280;17579;42.690;2.586;2023-04-25T05:41:13;96877.47;;;17.16;54.07
30873;BME280;17579;42.690;2.586;2023-04-25T05:43:42;96885.47;;;17.16;53.81
30873;BME280;17579;42.690;2.586;2023-04-25T05:46:23;96889.16;;;17.14;53.68
30873;BME280;17579;42.690;2.586;2023-04-25T05:48:52;96884.06;;;17.20;53.99
30873;BME280;17579;42.690;2.586;2023-04-25T05:51:21;96868.44;;;17.23;54.08
30873;BME280;17579;42.690;2.586;2023-04-25T05:53:49;96881.41;;;17.26;54.14
30873;BME280;17579;42.690;2.586;2023-04-25T05:56:18;96880.16;;;17.22;54.03
30873;BME280;17579;42.690;2.586;2023-04-25T05:58:49;96877.09;;;17.25;53.86
30873;BME280;17579;42.690;2.586;2023-04-25T06:01:19;96884.72;;;17.28;54.54
30873;BME280;17579;42.690;2.586;2023-04-25T06:03:49;96889.25;;;17.28;53.90
30873;BME280;17579;42.690;2.586;2023-04-25T06:06:16;96899.13;;;17.27;54.18
30873;BME280;17579;42.690;2.586;2023-04-25T06:08:42;96897.66;;;17.25;54.01
30873;BME280;17579;42.690;2.586;2023-04-25T06:11:08;96892.75;;;17.28;54.62
30873;BME280;17579;42.690;2.586;2023-04-25T06:13:42;96883.50;;;17.31;54.33
30873;BME280;17579;42.690;2.586;2023-04-25T06:16:07;96885.81;;;17.41;54.50
30873;BME280;17579;42.690;2.586;2023-04-25T06:18:36;96877.84;;;17.47;54.73
30873;BME280;17579;42.690;2.586;2023-04-25T06:21:08;96880.56;;;17.54;54.24
30873;BME280;17579;42.690;2.586;2023-04-25T06:23:34;96882.22;;;17.62;54.53
30873;BME280;17579;42.690;2.586;2023-04-25T06:26:02;96885.16;;;17.74;54.70
30873;BME280;17579;42.690;2.586;2023-04-25T06:28:28;96893.81;;;17.82;54.48
30873;BME280;17579;42.690;2.586;2023-04-25T06:30:54;96885.47;;;17.92;54.25
30873;BME280;17579;42.690;2.586;2023-04-25T06:33:22;96888.16;;;17.99;53.77
30873;BME280;17579;42.690;2.586;2023-04-25T06:35:52;96890.47;;;18.09;53.73
30873;BME280;17579;42.690;2.586;2023-04-25T06:38:23;96893.13;;;18.09;53.63
30873;BME280;17579;42.690;2.586;2023-04-25T06:40:49;96891.47;;;18.14;53.38
30873;BME280;17579;42.690;2.586;2023-04-25T06:46:04;96886.56;;;18.31;52.99
30873;BME280;17579;42.690;2.586;2023-04-25T06:48:32;96885.38;;;18.41;52.75
30873;BME280;17579;42.690;2.586;2023-04-25T06:50:58;96870.13;;;18.48;52.36
30873;BME280;17579;42.690;2.586;2023-04-25T06:53:24;96868.91;;;18.57;52.21
30873;BME280;17579;42.690;2.586;2023-04-25T06:55:52;96871.38;;;18.59;51.86
30873;BME280;17579;42.690;2.586;2023-04-25T06:58:20;96868.69;;;18.65;51.58
30873;BME280;17579;42.690;2.586;2023-04-25T07:00:57;96867.66;;;18.60;51.76
30873;BME280;17579;42.690;2.586;2023-04-25T07:03:22;96875.28;;;18.49;52.17
30873;BME280;17579;42.690;2.586;2023-04-25T07:06:11;96872.19;;;18.66;52.50
30873;BME280;17579;42.690;2.586;2023-04-25T07:08:39;96875.69;;;18.80;52.19
30873;BME280;17579;42.690;2.586;2023-04-25T07:11:08;96880.88;;;19.08;51.59
30873;BME280;17579;42.690;2.586;2023-04-25T07:13:34;96879.81;;;19.09;51.76
30873;BME280;17579;42.690;2.586;2023-04-25T07:16:00;96884.94;;;19.31;51.40
30873;BME280;17579;42.690;2.586;2023-04-25T07:18:33;96874.41;;;19.36;50.63
30873;BME280;17579;42.690;2.586;2023-04-25T07:20:59;96868.25;;;19.35;49.98
30873;BME280;17579;42.690;2.586;2023-04-25T07:23:35;96874.25;;;19.17;50.49
30873;BME280;17579;42.690;2.586;2023-04-25T07:26:16;96877.38;;;19.01;50.75
30873;BME280;17579;42.690;2.586;2023-04-25T07:28:42;96873.03;;;18.80;50.27
30873;BME280;17579;42.690;2.586;2023-04-25T07:31:08;96860.66;;;18.65;50.53
30873;BME280;17579;42.690;2.586;2023-04-25T07:33:37;96875.31;;;18.56;50.72
30873;BME280;17579;42.690;2.586;2023-04-25T07:36:13;96881.69;;;18.55;50.46
30873;BME280;17579;42.690;2.586;2023-04-25T07:38:55;96885.38;;;18.54;50.72
30873;BME280;17579;42.690;2.586;2023-04-25T07:41:43;96877.31;;;18.47;51.37
30873;BME280;17579;42.690;2.586;2023-04-25T07:47:07;96891.16;;;18.58;50.71
30873;BME280;17579;42.690;2.586;2023-04-25T07:49:37;96896.31;;;18.59;50.90
30873;BME280;17579;42.690;2.586;2023-04-25T07:52:04;96888.88;;;18.55;51.01
30873;BME280;17579;42.690;2.586;2023-04-25T07:54:36;96886.59;;;18.51;50.68
30873;BME280;17579;42.690;2.586;2023-04-25T07:57:06;96884.13;;;18.50;50.82
30873;BME280;17579;42.690;2.586;2023-04-25T07:59:44;96879.00;;;18.55;51.11
30873;BME280;17579;42.690;2.586;2023-04-25T08:02:13;96886.63;;;18.45;51.35
30873;BME280;17579;42.690;2.586;2023-04-25T08:04:41;96880.84;;;18.48;51.32
30873;BME280;17579;42.690;2.586;2023-04-25T08:07:07;96889.91;;;18.53;51.18
30873;BME280;17579;42.690;2.586;2023-04-25T08:09:35;96888.88;;;18.61;51.43
30873;BME280;17579;42.690;2.586;2023-04-25T08:12:14;96890.72;;;18.67;51.42
30873;BME280;17579;42.690;2.586;2023-04-25T08:14:50;96889.50;;;18.70;50.90
30873;BME280;17579;42.690;2.586;2023-04-25T08:17:16;96887.03;;;18.75;51.02
30873;BME280;17579;42.690;2.586;2023-04-25T08:19:42;96882.09;;;18.79;51.26
30873;BME280;17579;42.690;2.586;2023-04-25T08:24:59;96895.09;;;18.95;51.20
30873;BME280;17579;42.690;2.586;2023-04-25T08:27:27;96893.84;;;19.04;51.13
30873;BME280;17579;42.690;2.586;2023-04-25T08:29:58;96892.19;;;19.10;51.13
30873;BME280;17579;42.690;2.586;2023-04-25T08:32:24;96905.19;;;19.13;51.26
30873;BME280;17579;42.690;2.586;2023-04-25T08:34:53;96906.03;;;19.14;51.10
30873;BME280;17579;42.690;2.586;2023-04-25T08:37:37;96905.19;;;19.13;50.76
30873;BME280;17579;42.690;2.586;2023-04-25T08:40:07;96906.84;;;19.21;51.24
30873;BME280;17579;42.690;2.586;2023-04-25T08:42:46;96909.91;;;19.25;51.10
30873;BME280;17579;42.690;2.586;2023-04-25T08:45:34;96903.91;;;19.29;51.43
30873;BME280;17579;42.690;2.586;2023-04-25T08:48:04;96907.63;;;19.35;51.61
30873;BME280;17579;42.690;2.586;2023-04-25T08:50:34;96903.91;;;19.43;51.46
30873;BME280;17579;42.690;2.586;2023-04-25T08:53:04;96904.94;;;19.48;51.81
30873;BME280;17579;42.690;2.586;2023-04-25T08:55:37;96909.66;;;19.60;51.88
30873;BME280;17579;42.690;2.586;2023-04-25T08:58:04;96917.06;;;19.64;51.88
30873;BME280;17579;42.690;2.586;2023-04-25T09:00:39;96921.56;;;19.64;52.28
30873;BME280;17579;42.690;2.586;2023-04-25T09:03:27;96922.19;;;19.72;52.25
30873;BME280;17579;42.690;2.586;2023-04-25T09:06:03;96936.44;;;19.73;52.61
30873;BME280;17579;42.690;2.586;2023-04-25T09:08:30;96947.38;;;19.71;52.74
30873;BME280;17579;42.690;2.586;2023-04-25T09:11:03;96950.69;;;19.67;53.59
30873;BME280;17579;42.690;2.586;2023-04-25T09:13:31;96962.03;;;19.62;54.29
30873;BME280;17579;42.690;2.586;2023-04-25T09:16:07;96962.69;;;19.37;54.71
30873;BME280;17579;42.690;2.586;2023-04-25T09:18:42;96967.47;;;19.15;55.54
30873;BME280;17579;42.690;2.586;2023-04-25T09:27:22;96997.69;;;18.69;57.41
30873;BME280;17579;42.690;2.586;2023-04-25T09:29:58;96994.56;;;18.59;59.11
30873;BME280;17579;42.690;2.586;2023-04-25T09:32:26;97003.19;;;18.47;60.11
30873;BME280;17579;42.690;2.586;2023-04-25T09:34:53;97001.97;;;18.43;60.43
30873;BME280;17579;42.690;2.586;2023-04-25T09:39:54;97000.91;;;18.44;60.22
30873;BME280;17579;42.690;2.586;2023-04-25T09:42:31;97007.72;;;18.47;60.76
30873;BME280;17579;42.690;2.586;2023-04-25T09:45:01;97014.91;;;18.40;60.52
30873;BME280;17579;42.690;2.586;2023-04-25T09:47:30;97012.84;;;18.35;61.27
30873;BME280;17579;42.690;2.586;2023-04-25T09:50:14;97013.22;;;18.25;60.34
30873;BME280;17579;42.690;2.586;2023-04-25T09:52:43;97017.97;;;18.23;61.06
30873;BME280;17579;42.690;2.586;2023-04-25T09:55:09;97014.03;;;18.19;62.01
30873;BME280;17579;42.690;2.586;2023-04-25T10:00:24;97018.00;;;18.37;62.19
30873;BME280;17579;42.690;2.586;2023-04-25T10:02:54;97012.03;;;18.41;62.22
30873;BME280;17579;42.690;2.586;2023-04-25T10:05:21;97011.06;;;18.49;62.61
30873;BME280;17579;42.690;2.586;2023-04-25T10:07:47;97012.50;;;18.58;63.33
30873;BME280;17579;42.690;2.586;2023-04-25T10:10:13;97014.59;;;18.69;63.16
30873;BME280;17579;42.690;2.586;2023-04-25T10:12:47;97002.03;;;18.77;63.03
30873;BME280;17579;42.690;2.586;2023-04-25T10:15:23;96998.59;;;18.90;63.20
30873;BME280;17579;42.690;2.586;2023-04-25T10:18:02;97000.88;;;18.99;62.99
30873;BME280;17579;42.690;2.586;2023-04-25T10:20:34;97001.88;;;18.92;62.26
30873;BME280;17579;42.690;2.586;2023-04-25T10:23:30;96996.88;;;18.68;62.68
30873;BME280;17579;42.690;2.586;2023-04-25T10:26:09;97002.41;;;18.60;63.97
30873;BME280;17579;42.690;2.586;2023-04-25T10:31:15;96998.34;;;18.78;63.01
30873;BME280;17579;42.690;2.586;2023-04-25T10:33:48;96983.75;;;18.94;62.15
30873;BME280;17579;42.690;2.586;2023-04-25T10:36:24;96980.47;;;19.05;61.92
30873;BME280;17579;42.690;2.586;2023-04-25T10:38:52;96980.66;;;19.17;62.08
30873;BME280;17579;42.690;2.586;2023-04-25T10:41:22;96984.38;;;19.16;62.66
30873;BME280;17579;42.690;2.586;2023-04-25T10:43:49;96986.44;;;19.20;62.34
30873;BME280;17579;42.690;2.586;2023-04-25T10:48:50;96971.19;;;19.21;62.11
30873;BME280;17579;42.690;2.586;2023-04-25T10:56:19;96975.44;;;19.69;62.10
30873;BME280;17579;42.690;2.586;2023-04-25T11:01:51;96958.66;;;20.00;62.65
30873;BME280;17579;42.690;2.586;2023-04-25T11:06:55;96952.91;;;20.35;62.96
30873;BME280;17579;42.690;2.586;2023-04-25T11:09:26;96947.00;;;20.58;62.58
30873;BME280;17579;42.690;2.586;2023-04-25T11:14:44;96943.91;;;20.62;60.74
30873;BME280;17579;42.690;2.586;2023-04-25T11:17:26;96936.25;;;20.58;60.96
30873;BME280;17579;42.690;2.586;2023-04-25T11:19:59;96941.59;;;20.65;60.19
30873;BME280;17579;42.690;2.586;2023-04-25T11:22:46;96932.03;;;20.76;59.37
30873;BME280;17579;42.690;2.586;2023-04-25T11:25:16;96930.91;;;20.90;59.01
30873;BME280;17579;42.690;2.586;2023-04-25T11:30:18;96931.66;;;20.98;59.75
30873;BME280;17579;42.690;2.586;2023-04-25T11:32:48;96931.81;;;21.03;58.25
30873;BME280;17579;42.690;2.586;2023-04-25T11:38:19;96928.75;;;20.99;57.34
30873;BME280;17579;42.690;2.586;2023-04-25T11:40:49;96913.66;;;20.98;57.78
30873;BME280;17579;42.690;2.586;2023-04-25T11:43:28;96902.69;;;21.00;57.16
30873;BME280;17579;42.690;2.586;2023-04-25T11:45:59;96904.13;;;21.02;56.60
30873;BME280;17579;42.690;2.586;2023-04-25T11:48:39;96897.34;;;20.93;56.68
30873;BME280;17579;42.690;2.586;2023-04-25T11:51:08;96889.28;;;20.93;56.24
30873;BME280;17579;42.690;2.586;2023-04-25T11:53:34;96890.19;;;20.87;56.04
30873;BME280;17579;42.690;2.586;2023-04-25T11:56:20;96888.13;;;20.89;56.35
30873;BME280;17579;42.690;2.586;2023-04-25T11:58:57;96882.03;;;21.19;56.53
30873;BME280;17579;42.690;2.586;2023-04-25T12:04:22;96875.13;;;21.48;55.09
30873;BME280;17579;42.690;2.586;2023-04-25T12:06:53;96876.31;;;21.34;54.83
30873;BME280;17579;42.690;2.586;2023-04-25T12:09:38;96866.50;;;21.21;55.26
30873;BME280;17579;42.690;2.586;2023-04-25T12:12:09;96869.94;;;21.28;55.18
30873;BME280;17579;42.690;2.586;2023-04-25T12:18:14;96861.16;;;21.39;55.56
30873;BME280;17579;42.690;2.586;2023-04-25T12:21:01;96856.34;;;21.41;55.06
30873;BME280;17579;42.690;2.586;2023-04-25T12:23:38;96862.19;;;21.38;55.04
30873;BME280;17579;42.690;2.586;2023-04-25T12:26:07;96856.19;;;21.36;54.68
30873;BME280;17579;42.690;2.586;2023-04-25T12:28:33;96864.88;;;21.38;55.06
30873;BME280;17579;42.690;2.586;2023-04-25T12:31:31;96858.00;;;21.42;55.16
30873;BME280;17579;42.690;2.586;2023-04-25T12:34:06;96861.59;;;21.55;54.29
30873;BME280;17579;42.690;2.586;2023-04-25T12:36:44;96854.59;;;21.54;54.85
30873;BME280;17579;42.690;2.586;2023-04-25T12:39:30;96859.22;;;21.65;54.34
30873;BME280;17579;42.690;2.586;2023-04-25T12:42:04;96842.00;;;21.66;53.84
30873;BME280;17579;42.690;2.586;2023-04-25T12:44:43;96842.44;;;21.82;54.03
30873;BME280;17579;42.690;2.586;2023-04-25T12:47:16;96827.47;;;21.86;53.56
30873;BME280;17579;42.690;2.586;2023-04-25T12:49:51;96823.59;;;21.82;53.08
30873;BME280;17579;42.690;2.586;2023-04-25T12:52:17;96824.34;;;21.89;52.94
30873;BME280;17579;42.690;2.586;2023-04-25T12:55:22;96816.53;;;21.99;53.24
30873;BME280;17579;42.690;2.586;2023-04-25T12:57:58;96819.53;;;21.91;52.02
30873;BME280;17579;42.690;2.586;2023-04-25T13:00:36;96815.97;;;22.09;52.65
30873;BME280;17579;42.690;2.586;2023-04-25T13:03:04;96811.22;;;22.23;51.76
30873;BME280;17579;42.690;2.586;2023-04-25T13:05:32;96822.00;;;22.23;51.25
30873;BME280;17579;42.690;2.586;2023-04-25T13:07:58;96819.13;;;22.48;51.75
30873;BME280;17579;42.690;2.586;2023-04-25T13:10:24;96813.78;;;22.72;51.23
30873;BME280;17579;42.690;2.586;2023-04-25T13:13:06;96810.16;;;22.78;50.83
30873;BME280;17579;42.690;2.586;2023-04-25T13:15:35;96808.72;;;23.34;50.20
30873;BME280;17579;42.690;2.586;2023-04-25T13:18:06;96801.16;;;24.01;49.08
30873;BME280;17579;42.690;2.586;2023-04-25T13:20:32;96799.38;;;24.41;47.66
30873;BME280;17579;42.690;2.586;2023-04-25T13:23:08;96799.28;;;24.18;47.66
30873;BME280;17579;42.690;2.586;2023-04-25T13:25:36;96803.53;;;23.85;47.00
30873;BME280;17579;42.690;2.586;2023-04-25T13:28:23;96792.50;;;23.87;47.88
30873;BME280;17579;42.690;2.586;2023-04-25T13:30:52;96795.03;;;24.23;47.33
30873;BME280;17579;42.690;2.586;2023-04-25T13:33:26;96810.59;;;23.75;47.38
30873;BME280;17579;42.690;2.586;2023-04-25T13:36:00;96808.38;;;23.31;48.45
30873;BME280;17579;42.690;2.586;2023-04-25T13:38:25;96802.38;;;23.81;48.32
30873;BME280;17579;42.690;2.586;2023-04-25T13:40:51;96797.63;;;24.00;46.87
30873;BME280;17579;42.690;2.586;2023-04-25T13:43:32;96802.16;;;24.29;47.50
30873;BME280;17579;42.690;2.586;2023-04-25T13:48:44;96802.66;;;24.94;45.44
30873;BME280;17579;42.690;2.586;2023-04-25T13:51:12;96809.63;;;25.06;45.01
30873;BME280;17579;42.690;2.586;2023-04-25T13:53:41;96812.03;;;25.03;45.31
30873;BME280;17579;42.690;2.586;2023-04-25T13:56:23;96801.16;;;25.20;45.20
30873;BME280;17579;42.690;2.586;2023-04-25T13:58:53;96806.13;;;25.28;44.54
30873;BME280;17579;42.690;2.586;2023-04-25T14:01:18;96804.66;;;25.37;44.71
30873;BME280;17579;42.690;2.586;2023-04-25T14:03:46;96805.47;;;25.38;44.71
30873;BME280;17579;42.690;2.586;2023-04-25T14:06:19;96817.94;;;24.83;44.55
30873;BME280;17579;42.690;2.586;2023-04-25T14:08:51;96824.50;;;24.07;45.25
30873;BME280;17579;42.690;2.586;2023-04-25T14:11:22;96833.38;;;23.38;46.79
30873;BME280;17579;42.690;2.586;2023-04-25T14:13:59;96834.06;;;22.86;48.22
30873;BME280;17579;42.690;2.586;2023-04-25T14:16:25;96830.84;;;22.42;48.83
30873;BME280;17579;42.690;2.586;2023-04-25T14:18:50;96826.22;;;22.30;48.87
30873;BME280;17579;42.690;2.586;2023-04-25T14:21:20;96824.69;;;22.23;50.07
30873;BME280;17579;42.690;2.586;2023-04-25T14:28:59;96816.50;;;23.19;48.59
30873;BME280;17579;42.690;2.586;2023-04-25T14:32:13;96806.97;;;23.28;48.20